sensor_id;sensor_type;location;lat;lon;timestamp;P1;durP1;ratioP1;P2;durP2;ratioP2
6836;SDS011;3456;42.136;24.736;2023-05-07T00:01:33;14.17;;;7.60;;
6836;SDS011;3456;42.136;24.736;2023-05-07T00:04:01;10.73;;;7.03;;
6836;SDS011;3456;42.136;24.736;2023-05-07T00:06:31;14.53;;;7.23;;
6836;SDS011;3456;42.136;24.736;2023-05-07T00:09:00;14.07;;;7.23;;
6836;SDS011;3456;42.136;24.736;2023-05-07T00:11:32;10.67;;;6.73;;
6836;SDS011;3456;42.136;24.736;2023-05-07T00:14:01;10.90;;;6.90;;
6836;SDS011;3456;42.136;24.736;2023-05-07T00:16:30;8.97;;;6.20;;
6836;SDS011;3456;42.136;24.736;2023-05-07T00:18:58;8.43;;;6.40;;
6836;SDS011;3456;42.136;24.736;2023-05-07T00:21:27;8.83;;;6.33;;
6836;SDS011;3456;42.136;24.736;2023-05-07T00:23:56;11.13;;;6.17;;
6836;SDS011;3456;42.136;24.736;2023-05-07T00:26:25;8.80;;;6.30;;
6836;SDS011;3456;42.136;24.736;2023-05-07T00:28:56;10.30;;;6.50;;
6836;SDS011;3456;42.136;24.736;2023-05-07T00:31:25;7.83;;;5.67;;
6836;SDS011;3456;42.136;24.736;2023-05-07T00:33:53;8.03;;;6.00;;
6836;SDS011;3456;42.136;24.736;2023-05-07T00:36:22;8.70;;;6.13;;
6836;SDS011;3456;42.136;24.736;2023-05-07T00:38:51;9.67;;;6.30;;
6836;SDS011;3456;42.136;24.736;2023-05-07T00:41:20;7.53;;;6.27;;
6836;SDS011;3456;42.136;24.736;2023-05-07T00:43:49;12.47;;;6.13;;
6836;SDS011;3456;42.136;24.736;2023-05-07T00:46:20;8.97;;;6.40;;
6836;SDS011;3456;42.136;24.736;2023-05-07T00:48:49;10.90;;;6.53;;
6836;SDS011;3456;42.136;24.736;2023-05-07T00:51:19;8.63;;;6.00;;
6836;SDS011;3456;42.136;24.736;2023-05-07T00:53:48;12.30;;;6.30;;
6836;SDS011;3456;42.136;24.736;2023-05-07T00:56:17;8.97;;;5.90;;
6836;SDS011;3456;42.136;24.736;2023-05-07T00:58:47;7.90;;;5.77;;
6836;SDS011;3456;42.136;24.736;2023-05-07T01:01:16;8.47;;;5.93;;
6836;SDS011;3456;42.136;24.736;2023-05-07T01:03:47;10.97;;;5.87;;
6836;SDS011;3456;42.136;24.736;2023-05-07T01:06:16;8.80;;;5.83;;
6836;SDS011;3456;42.136;24.736;2023-05-07T01:08:46;12.43;;;5.50;;
6836;SDS011;3456;42.136;24.736;2023-05-07T01:11:18;11.17;;;6.33;;
6836;SDS011;3456;42.136;24.736;2023-05-07T01:13:47;8.30;;;5.70;;
6836;SDS011;3456;42.136;24.736;2023-05-07T01:16:17;14.90;;;6.47;;
6836;SDS011;3456;42.136;24.736;2023-05-07T01:18:49;8.50;;;5.97;;
6836;SDS011;3456;42.136;24.736;2023-05-07T01:21:18;12.87;;;6.07;;
6836;SDS011;3456;42.136;24.736;2023-05-07T01:23:55;7.57;;;6.00;;
6836;SDS011;3456;42.136;24.736;2023-05-07T01:26:25;9.00;;;5.70;;
6836;SDS011;3456;42.136;24.736;2023-05-07T01:28:54;9.93;;;6.00;;
6836;SDS011;3456;42.136;24.736;2023-05-07T01:31:23;6.70;;;5.67;;
6836;SDS011;3456;42.136;24.736;2023-05-07T01:33:52;9.87;;;5.77;;
6836;SDS011;3456;42.136;24.736;2023-05-07T01:36:23;11.83;;;6.93;;
6836;SDS011;3456;42.136;24.736;2023-05-07T01:38:56;11.33;;;6.63;;
6836;SDS011;3456;42.136;24.736;2023-05-07T01:41:26;9.27;;;6.50;;
6836;SDS011;3456;42.136;24.736;2023-05-07T01:43:55;7.23;;;6.43;;
6836;SDS011;3456;42.136;24.736;2023-05-07T01:46:26;12.20;;;6.37;;
6836;SDS011;3456;42.136;24.736;2023-05-07T01:48:55;11.33;;;6.47;;
6836;SDS011;3456;42.136;24.736;2023-05-07T01:51:24;8.53;;;6.27;;
6836;SDS011;3456;42.136;24.736;2023-05-07T01:53:53;8.63;;;6.50;;
6836;SDS011;3456;42.136;24.736;2023-05-07T01:56:25;11.30;;;6.57;;
6836;SDS011;3456;42.136;24.736;2023-05-07T01:58:54;10.83;;;5.97;;
6836;SDS011;3456;42.136;24.736;2023-05-07T02:01:22;9.60;;;6.13;;
6836;SDS011;3456;42.136;24.736;2023-05-07T02:03:51;11.43;;;6.13;;
6836;SDS011;3456;42.136;24.736;2023-05-07T02:06:20;11.90;;;5.63;;
6836;SDS011;3456;42.136;24.736;2023-05-07T02:08:49;11.60;;;6.30;;
6836;SDS011;3456;42.136;24.736;2023-05-07T02:11:20;12.33;;;6.70;;
6836;SDS011;3456;42.136;24.736;2023-05-07T02:13:50;8.27;;;6.60;;
6836;SDS011;3456;42.136;24.736;2023-05-07T02:16:19;11.97;;;6.50;;
6836;SDS011;3456;42.136;24.736;2023-05-07T02:18:48;13.33;;;6.87;;
6836;SDS011;3456;42.136;24.736;2023-05-07T02:21:17;11.90;;;6.60;;
6836;SDS011;3456;42.136;24.736;2023-05-07T02:23:45;10.87;;;6.57;;
6836;SDS011;3456;42.136;24.736;2023-05-07T02:26:14;10.17;;;6.87;;
6836;SDS011;3456;42.136;24.736;2023-05-07T02:28:45;13.23;;;7.53;;
6836;SDS011;3456;42.136;24.736;2023-05-07T02:31:14;14.97;;;8.00;;
6836;SDS011;3456;42.136;24.736;2023-05-07T02:33:46;11.07;;;7.67;;
6836;SDS011;3456;42.136;24.736;2023-05-07T02:36:15;11.93;;;7.30;;
6836;SDS011;3456;42.136;24.736;2023-05-07T02:38:44;9.37;;;7.73;;
6836;SDS011;3456;42.136;24.736;2023-05-07T02:41:12;11.33;;;6.90;;
6836;SDS011;3456;42.136;24.736;2023-05-07T02:43:41;10.30;;;7.80;;
6836;SDS011;3456;42.136;24.736;2023-05-07T02:46:12;13.50;;;7.47;;
6836;SDS011;3456;42.136;24.736;2023-05-07T02:48:41;14.73;;;8.70;;
6836;SDS011;3456;42.136;24.736;2023-05-07T02:51:10;12.67;;;8.23;;
6836;SDS011;3456;42.136;24.736;2023-05-07T02:53:39;14.17;;;8.63;;
6836;SDS011;3456;42.136;24.736;2023-05-07T02:56:07;10.60;;;8.13;;
6836;SDS011;3456;42.136;24.736;2023-05-07T02:58:36;11.23;;;8.40;;
6836;SDS011;3456;42.136;24.736;2023-05-07T03:01:05;11.37;;;8.43;;
6836;SDS011;3456;42.136;24.736;2023-05-07T03:03:36;13.90;;;8.63;;
6836;SDS011;3456;42.136;24.736;2023-05-07T03:06:05;11.00;;;8.40;;
6836;SDS011;3456;42.136;24.736;2023-05-07T03:08:34;10.47;;;8.40;;
6836;SDS011;3456;42.136;24.736;2023-05-07T03:11:03;10.33;;;8.20;;
6836;SDS011;3456;42.136;24.736;2023-05-07T03:13:32;14.70;;;8.97;;
6836;SDS011;3456;42.136;24.736;2023-05-07T03:16:01;14.77;;;8.50;;
6836;SDS011;3456;42.136;24.736;2023-05-07T03:18:29;11.13;;;8.80;;
6836;SDS011;3456;42.136;24.736;2023-05-07T03:21:01;11.30;;;9.10;;
6836;SDS011;3456;42.136;24.736;2023-05-07T03:23:29;19.33;;;9.30;;
6836;SDS011;3456;42.136;24.736;2023-05-07T03:25:58;11.07;;;9.27;;
6836;SDS011;3456;42.136;24.736;2023-05-07T03:28:27;12.50;;;9.40;;
6836;SDS011;3456;42.136;24.736;2023-05-07T03:30:56;16.97;;;10.70;;
6836;SDS011;3456;42.136;24.736;2023-05-07T03:33:24;12.93;;;9.70;;
6836;SDS011;3456;42.136;24.736;2023-05-07T03:35:53;15.77;;;10.00;;
6836;SDS011;3456;42.136;24.736;2023-05-07T03:38:25;13.20;;;9.37;;
6836;SDS011;3456;42.136;24.736;2023-05-07T03:40:53;13.63;;;9.93;;
6836;SDS011;3456;42.136;24.736;2023-05-07T03:43:22;12.60;;;9.23;;
6836;SDS011;3456;42.136;24.736;2023-05-07T03:45:51;14.97;;;9.83;;
6836;SDS011;3456;42.136;24.736;2023-05-07T03:48:20;12.50;;;9.23;;
6836;SDS011;3456;42.136;24.736;2023-05-07T03:50:48;15.23;;;9.67;;
6836;SDS011;3456;42.136;24.736;2023-05-07T03:53:17;13.47;;;9.57;;
6836;SDS011;3456;42.136;24.736;2023-05-07T03:55:48;13.80;;;9.43;;
6836;SDS011;3456;42.136;24.736;2023-05-07T03:58:19;13.80;;;9.20;;
6836;SDS011;3456;42.136;24.736;2023-05-07T04:00:47;11.73;;;9.03;;
6836;SDS011;3456;42.136;24.736;2023-05-07T04:03:16;12.47;;;8.77;;
6836;SDS011;3456;42.136;24.736;2023-05-07T04:05:45;15.30;;;9.17;;
6836;SDS011;3456;42.136;24.736;2023-05-07T04:08:14;12.60;;;8.67;;
6836;SDS011;3456;42.136;24.736;2023-05-07T04:10:43;13.00;;;8.60;;
6836;SDS011;3456;42.136;24.736;2023-05-07T04:13:14;10.13;;;7.87;;
6836;SDS011;3456;42.136;24.736;2023-05-07T04:15:43;13.53;;;7.77;;
6836;SDS011;3456;42.136;24.736;2023-05-07T04:18:11;15.83;;;8.27;;
6836;SDS011;3456;42.136;24.736;2023-05-07T04:20:40;10.77;;;8.20;;
6836;SDS011;3456;42.136;24.736;2023-05-07T04:23:09;13.30;;;8.20;;
6836;SDS011;3456;42.136;24.736;2023-05-07T04:25:38;11.23;;;7.97;;
6836;SDS011;3456;42.136;24.736;2023-05-07T04:28:07;10.57;;;7.83;;
6836;SDS011;3456;42.136;24.736;2023-05-07T04:30:39;11.33;;;7.47;;
6836;SDS011;3456;42.136;24.736;2023-05-07T04:33:08;11.40;;;7.63;;
6836;SDS011;3456;42.136;24.736;2023-05-07T04:35:37;12.37;;;6.80;;
6836;SDS011;3456;42.136;24.736;2023-05-07T04:38:05;12.53;;;7.47;;
6836;SDS011;3456;42.136;24.736;2023-05-07T04:40:35;13.27;;;8.17;;
6836;SDS011;3456;42.136;24.736;2023-05-07T04:43:04;11.10;;;7.90;;
6836;SDS011;3456;42.136;24.736;2023-05-07T04:45:34;12.53;;;7.63;;
6836;SDS011;3456;42.136;24.736;2023-05-07T04:48:08;8.90;;;7.33;;
6836;SDS011;3456;42.136;24.736;2023-05-07T04:50:39;10.87;;;8.03;;
6836;SDS011;3456;42.136;24.736;2023-05-07T04:53:08;12.70;;;7.40;;
6836;SDS011;3456;42.136;24.736;2023-05-07T04:55:38;13.00;;;8.33;;
6836;SDS011;3456;42.136;24.736;2023-05-07T04:58:06;8.40;;;6.80;;
6836;SDS011;3456;42.136;24.736;2023-05-07T05:00:35;12.73;;;8.07;;
6836;SDS011;3456;42.136;24.736;2023-05-07T05:03:04;11.30;;;7.90;;
6836;SDS011;3456;42.136;24.736;2023-05-07T05:05:36;9.87;;;7.37;;
6836;SDS011;3456;42.136;24.736;2023-05-07T05:08:05;14.13;;;7.67;;
6836;SDS011;3456;42.136;24.736;2023-05-07T05:10:34;11.33;;;7.50;;
6836;SDS011;3456;42.136;24.736;2023-05-07T05:13:03;11.43;;;7.53;;
6836;SDS011;3456;42.136;24.736;2023-05-07T05:15:32;9.23;;;7.37;;
6836;SDS011;3456;42.136;24.736;2023-05-07T05:18:00;9.70;;;7.10;;
6836;SDS011;3456;42.136;24.736;2023-05-07T05:20:29;10.07;;;7.40;;
6836;SDS011;3456;42.136;24.736;2023-05-07T05:23:01;9.93;;;7.33;;
6836;SDS011;3456;42.136;24.736;2023-05-07T05:25:29;9.50;;;7.43;;
6836;SDS011;3456;42.136;24.736;2023-05-07T05:27:58;12.00;;;7.27;;
6836;SDS011;3456;42.136;24.736;2023-05-07T05:30:27;11.67;;;7.67;;
6836;SDS011;3456;42.136;24.736;2023-05-07T05:32:56;15.80;;;7.77;;
6836;SDS011;3456;42.136;24.736;2023-05-07T05:35:25;10.60;;;7.43;;
6836;SDS011;3456;42.136;24.736;2023-05-07T05:37:53;11.00;;;7.17;;
6836;SDS011;3456;42.136;24.736;2023-05-07T05:40:25;13.87;;;7.53;;
6836;SDS011;3456;42.136;24.736;2023-05-07T05:42:54;10.87;;;6.93;;
6836;SDS011;3456;42.136;24.736;2023-05-07T05:45:23;16.20;;;7.07;;
6836;SDS011;3456;42.136;24.736;2023-05-07T05:47:52;9.20;;;7.40;;
6836;SDS011;3456;42.136;24.736;2023-05-07T05:50:20;8.87;;;7.20;;
6836;SDS011;3456;42.136;24.736;2023-05-07T05:52:50;14.70;;;7.13;;
6836;SDS011;3456;42.136;24.736;2023-05-07T05:55:19;10.53;;;7.50;;
6836;SDS011;3456;42.136;24.736;2023-05-07T05:57:50;13.73;;;6.53;;
6836;SDS011;3456;42.136;24.736;2023-05-07T06:00:19;10.10;;;6.37;;
6836;SDS011;3456;42.136;24.736;2023-05-07T06:02:49;12.97;;;6.77;;
6836;SDS011;3456;42.136;24.736;2023-05-07T06:05:18;12.03;;;6.93;;
6836;SDS011;3456;42.136;24.736;2023-05-07T06:07:47;9.67;;;6.80;;
6836;SDS011;3456;42.136;24.736;2023-05-07T06:10:15;12.60;;;6.83;;
6836;SDS011;3456;42.136;24.736;2023-05-07T06:12:44;10.70;;;6.40;;
6836;SDS011;3456;42.136;24.736;2023-05-07T06:15:16;10.53;;;6.10;;
6836;SDS011;3456;42.136;24.736;2023-05-07T06:17:44;11.23;;;6.53;;
6836;SDS011;3456;42.136;24.736;2023-05-07T06:20:14;12.73;;;6.87;;
6836;SDS011;3456;42.136;24.736;2023-05-07T06:22:48;8.77;;;5.77;;
6836;SDS011;3456;42.136;24.736;2023-05-07T06:25:19;8.43;;;6.50;;
6836;SDS011;3456;42.136;24.736;2023-05-07T06:27:48;11.07;;;6.30;;
6836;SDS011;3456;42.136;24.736;2023-05-07T06:30:19;10.50;;;6.40;;
6836;SDS011;3456;42.136;24.736;2023-05-07T06:32:48;14.70;;;7.53;;
6836;SDS011;3456;42.136;24.736;2023-05-07T06:35:17;13.37;;;7.03;;
6836;SDS011;3456;42.136;24.736;2023-05-07T06:37:46;8.73;;;6.17;;
6836;SDS011;3456;42.136;24.736;2023-05-07T06:40:14;8.87;;;6.07;;
6836;SDS011;3456;42.136;24.736;2023-05-07T06:42:43;11.77;;;6.13;;
6836;SDS011;3456;42.136;24.736;2023-05-07T06:45:12;10.43;;;6.00;;
6836;SDS011;3456;42.136;24.736;2023-05-07T06:47:44;12.40;;;6.63;;
6836;SDS011;3456;42.136;24.736;2023-05-07T06:50:13;12.07;;;6.50;;
6836;SDS011;3456;42.136;24.736;2023-05-07T06:52:42;9.90;;;6.60;;
6836;SDS011;3456;42.136;24.736;2023-05-07T06:55:11;10.57;;;5.90;;
6836;SDS011;3456;42.136;24.736;2023-05-07T06:57:39;8.77;;;5.13;;
6836;SDS011;3456;42.136;24.736;2023-05-07T07:00:08;8.53;;;5.57;;
6836;SDS011;3456;42.136;24.736;2023-05-07T07:02:38;7.30;;;5.60;;
6836;SDS011;3456;42.136;24.736;2023-05-07T07:05:09;9.63;;;5.97;;
6836;SDS011;3456;42.136;24.736;2023-05-07T07:07:38;10.83;;;6.17;;
6836;SDS011;3456;42.136;24.736;2023-05-07T07:10:07;9.33;;;5.97;;
6836;SDS011;3456;42.136;24.736;2023-05-07T07:12:37;11.63;;;6.67;;
6836;SDS011;3456;42.136;24.736;2023-05-07T07:15:06;8.53;;;5.93;;
6836;SDS011;3456;42.136;24.736;2023-05-07T07:17:36;8.53;;;6.20;;
6836;SDS011;3456;42.136;24.736;2023-05-07T07:20:05;13.93;;;6.47;;
6836;SDS011;3456;42.136;24.736;2023-05-07T07:22:38;12.53;;;6.07;;
6836;SDS011;3456;42.136;24.736;2023-05-07T07:25:08;9.27;;;6.70;;
6836;SDS011;3456;42.136;24.736;2023-05-07T07:27:37;10.83;;;6.63;;
6836;SDS011;3456;42.136;24.736;2023-05-07T07:30:06;10.57;;;6.63;;
6836;SDS011;3456;42.136;24.736;2023-05-07T07:32:36;9.97;;;6.57;;
6836;SDS011;3456;42.136;24.736;2023-05-07T07:35:06;11.60;;;6.90;;
6836;SDS011;3456;42.136;24.736;2023-05-07T07:37:38;12.23;;;6.40;;
6836;SDS011;3456;42.136;24.736;2023-05-07T07:40:07;13.83;;;6.23;;
6836;SDS011;3456;42.136;24.736;2023-05-07T07:42:39;11.33;;;6.60;;
6836;SDS011;3456;42.136;24.736;2023-05-07T07:45:13;11.70;;;6.60;;
6836;SDS011;3456;42.136;24.736;2023-05-07T07:47:42;8.43;;;6.73;;
6836;SDS011;3456;42.136;24.736;2023-05-07T07:50:10;14.90;;;8.57;;
6836;SDS011;3456;42.136;24.736;2023-05-07T07:52:45;12.90;;;8.20;;
6836;SDS011;3456;42.136;24.736;2023-05-07T07:55:14;16.30;;;7.60;;
6836;SDS011;3456;42.136;24.736;2023-05-07T07:57:46;10.77;;;6.40;;
6836;SDS011;3456;42.136;24.736;2023-05-07T08:00:16;8.80;;;6.43;;
6836;SDS011;3456;42.136;24.736;2023-05-07T08:02:45;8.97;;;6.10;;
6836;SDS011;3456;42.136;24.736;2023-05-07T08:05:13;11.13;;;6.77;;
6836;SDS011;3456;42.136;24.736;2023-05-07T08:07:45;11.17;;;6.87;;
6836;SDS011;3456;42.136;24.736;2023-05-07T08:10:17;8.90;;;6.00;;
6836;SDS011;3456;42.136;24.736;2023-05-07T08:12:46;11.83;;;6.60;;
6836;SDS011;3456;42.136;24.736;2023-05-07T08:15:17;9.63;;;6.40;;
6836;SDS011;3456;42.136;24.736;2023-05-07T08:17:46;10.57;;;6.60;;
6836;SDS011;3456;42.136;24.736;2023-05-07T08:20:15;11.17;;;6.27;;
6836;SDS011;3456;42.136;24.736;2023-05-07T08:22:46;11.17;;;5.83;;
6836;SDS011;3456;42.136;24.736;2023-05-07T08:25:15;7.70;;;4.50;;
6836;SDS011;3456;42.136;24.736;2023-05-07T08:27:44;8.50;;;4.47;;
6836;SDS011;3456;42.136;24.736;2023-05-07T08:30:14;10.47;;;4.40;;
6836;SDS011;3456;42.136;24.736;2023-05-07T08:32:43;7.27;;;4.97;;
6836;SDS011;3456;42.136;24.736;2023-05-07T08:35:11;8.50;;;4.37;;
6836;SDS011;3456;42.136;24.736;2023-05-07T08:37:40;6.83;;;3.93;;
6836;SDS011;3456;42.136;24.736;2023-05-07T08:40:12;5.57;;;4.03;;
6836;SDS011;3456;42.136;24.736;2023-05-07T08:42:40;4.43;;;3.80;;
6836;SDS011;3456;42.136;24.736;2023-05-07T08:45:10;8.30;;;4.10;;
6836;SDS011;3456;42.136;24.736;2023-05-07T08:47:42;7.83;;;4.90;;
6836;SDS011;3456;42.136;24.736;2023-05-07T08:50:13;13.60;;;6.23;;
6836;SDS011;3456;42.136;24.736;2023-05-07T08:52:42;7.60;;;4.70;;
6836;SDS011;3456;42.136;24.736;2023-05-07T08:55:13;5.57;;;4.30;;
6836;SDS011;3456;42.136;24.736;2023-05-07T08:57:42;7.50;;;4.33;;
6836;SDS011;3456;42.136;24.736;2023-05-07T09:00:12;6.13;;;4.10;;
6836;SDS011;3456;42.136;24.736;2023-05-07T09:02:42;8.40;;;3.93;;
6836;SDS011;3456;42.136;24.736;2023-05-07T09:05:11;4.83;;;3.50;;
6836;SDS011;3456;42.136;24.736;2023-05-07T09:07:39;8.93;;;4.20;;
6836;SDS011;3456;42.136;24.736;2023-05-07T09:10:08;6.83;;;3.30;;
6836;SDS011;3456;42.136;24.736;2023-05-07T09:12:40;3.90;;;3.40;;
6836;SDS011;3456;42.136;24.736;2023-05-07T09:15:09;7.13;;;3.77;;
6836;SDS011;3456;42.136;24.736;2023-05-07T09:17:38;7.20;;;3.57;;
6836;SDS011;3456;42.136;24.736;2023-05-07T09:20:08;9.33;;;3.53;;
6836;SDS011;3456;42.136;24.736;2023-05-07T09:22:38;6.07;;;3.10;;
6836;SDS011;3456;42.136;24.736;2023-05-07T09:25:08;4.87;;;3.10;;
6836;SDS011;3456;42.136;24.736;2023-05-07T09:27:40;3.73;;;3.00;;
6836;SDS011;3456;42.136;24.736;2023-05-07T09:30:10;3.53;;;3.03;;
6836;SDS011;3456;42.136;24.736;2023-05-07T09:32:40;4.90;;;2.50;;
6836;SDS011;3456;42.136;24.736;2023-05-07T09:35:14;3.60;;;2.93;;
6836;SDS011;3456;42.136;24.736;2023-05-07T09:37:43;5.03;;;3.03;;
6836;SDS011;3456;42.136;24.736;2023-05-07T09:40:19;6.13;;;3.10;;
6836;SDS011;3456;42.136;24.736;2023-05-07T09:42:52;6.70;;;3.10;;
6836;SDS011;3456;42.136;24.736;2023-05-07T09:45:21;3.17;;;2.80;;
6836;SDS011;3456;42.136;24.736;2023-05-07T09:47:53;3.63;;;2.93;;
6836;SDS011;3456;42.136;24.736;2023-05-07T09:50:25;9.40;;;3.23;;
6836;SDS011;3456;42.136;24.736;2023-05-07T09:53:05;5.90;;;3.43;;
6836;SDS011;3456;42.136;24.736;2023-05-07T09:55:34;5.73;;;3.37;;
6836;SDS011;3456;42.136;24.736;2023-05-07T09:58:07;9.10;;;3.17;;
6836;SDS011;3456;42.136;24.736;2023-05-07T10:00:37;6.67;;;3.27;;
6836;SDS011;3456;42.136;24.736;2023-05-07T10:03:08;4.83;;;3.20;;
6836;SDS011;3456;42.136;24.736;2023-05-07T10:05:38;6.53;;;3.13;;
6836;SDS011;3456;42.136;24.736;2023-05-07T10:08:07;5.87;;;3.70;;
6836;SDS011;3456;42.136;24.736;2023-05-07T10:10:37;6.07;;;3.10;;
6836;SDS011;3456;42.136;24.736;2023-05-07T10:13:09;6.10;;;3.20;;
6836;SDS011;3456;42.136;24.736;2023-05-07T10:15:38;5.07;;;3.37;;
6836;SDS011;3456;42.136;24.736;2023-05-07T10:18:08;7.50;;;3.00;;
6836;SDS011;3456;42.136;24.736;2023-05-07T10:20:40;9.33;;;3.37;;
6836;SDS011;3456;42.136;24.736;2023-05-07T10:23:12;5.63;;;3.10;;
6836;SDS011;3456;42.136;24.736;2023-05-07T10:25:44;7.77;;;3.20;;
6836;SDS011;3456;42.136;24.736;2023-05-07T10:28:16;3.97;;;3.47;;
6836;SDS011;3456;42.136;24.736;2023-05-07T10:30:50;3.47;;;3.03;;
6836;SDS011;3456;42.136;24.736;2023-05-07T10:33:28;6.23;;;3.80;;
6836;SDS011;3456;42.136;24.736;2023-05-07T10:36:04;4.07;;;3.00;;
6836;SDS011;3456;42.136;24.736;2023-05-07T10:38:34;7.50;;;3.87;;
6836;SDS011;3456;42.136;24.736;2023-05-07T10:41:06;9.03;;;3.73;;
6836;SDS011;3456;42.136;24.736;2023-05-07T10:43:41;7.83;;;3.43;;
6836;SDS011;3456;42.136;24.736;2023-05-07T10:46:13;9.57;;;3.70;;
6836;SDS011;3456;42.136;24.736;2023-05-07T10:51:40;5.80;;;3.37;;
6836;SDS011;3456;42.136;24.736;2023-05-07T10:56:54;2.97;;;2.67;;
6836;SDS011;3456;42.136;24.736;2023-05-07T10:59:35;3.87;;;3.00;;
6836;SDS011;3456;42.136;24.736;2023-05-07T11:02:11;6.03;;;2.90;;
6836;SDS011;3456;42.136;24.736;2023-05-07T11:04:40;5.13;;;3.30;;
6836;SDS011;3456;42.136;24.736;2023-05-07T11:10:06;7.97;;;3.13;;
6836;SDS011;3456;42.136;24.736;2023-05-07T11:12:48;3.23;;;2.70;;
6836;SDS011;3456;42.136;24.736;2023-05-07T11:15:37;5.27;;;3.13;;
6836;SDS011;3456;42.136;24.736;2023-05-07T11:18:10;6.53;;;2.87;;
6836;SDS011;3456;42.136;24.736;2023-05-07T11:20:47;3.17;;;2.70;;
6836;SDS011;3456;42.136;24.736;2023-05-07T11:26:19;5.93;;;2.77;;
6836;SDS011;3456;42.136;24.736;2023-05-07T11:28:48;4.23;;;3.07;;
6836;SDS011;3456;42.136;24.736;2023-05-07T11:31:22;2.87;;;2.60;;
6836;SDS011;3456;42.136;24.736;2023-05-07T11:33:53;4.17;;;3.23;;
6836;SDS011;3456;42.136;24.736;2023-05-07T11:36:23;3.53;;;2.67;;
6836;SDS011;3456;42.136;24.736;2023-05-07T11:38:52;4.70;;;2.80;;
6836;SDS011;3456;42.136;24.736;2023-05-07T11:41:21;6.57;;;3.30;;
6836;SDS011;3456;42.136;24.736;2023-05-07T11:43:53;5.03;;;3.10;;
6836;SDS011;3456;42.136;24.736;2023-05-07T11:46:29;5.60;;;3.10;;
6836;SDS011;3456;42.136;24.736;2023-05-07T11:48:58;5.40;;;2.70;;
6836;SDS011;3456;42.136;24.736;2023-05-07T11:51:28;5.87;;;3.30;;
6836;SDS011;3456;42.136;24.736;2023-05-07T11:53:58;7.03;;;3.40;;
6836;SDS011;3456;42.136;24.736;2023-05-07T11:56:26;6.87;;;3.20;;
6836;SDS011;3456;42.136;24.736;2023-05-07T11:58:55;4.87;;;2.90;;
6836;SDS011;3456;42.136;24.736;2023-05-07T12:01:24;3.83;;;2.80;;
6836;SDS011;3456;42.136;24.736;2023-05-07T12:03:55;5.07;;;3.70;;
6836;SDS011;3456;42.136;24.736;2023-05-07T12:06:24;5.80;;;3.33;;
6836;SDS011;3456;42.136;24.736;2023-05-07T12:08:53;5.37;;;2.93;;
6836;SDS011;3456;42.136;24.736;2023-05-07T12:11:23;4.10;;;3.33;;
6836;SDS011;3456;42.136;24.736;2023-05-07T12:13:53;3.47;;;3.00;;
6836;SDS011;3456;42.136;24.736;2023-05-07T12:16:23;5.80;;;3.20;;
6836;SDS011;3456;42.136;24.736;2023-05-07T12:18:55;3.57;;;2.87;;
6836;SDS011;3456;42.136;24.736;2023-05-07T12:21:24;4.80;;;2.80;;
6836;SDS011;3456;42.136;24.736;2023-05-07T12:23:53;4.93;;;2.83;;
6836;SDS011;3456;42.136;24.736;2023-05-07T12:26:22;5.40;;;3.40;;
6836;SDS011;3456;42.136;24.736;2023-05-07T12:28:51;6.83;;;3.40;;
6836;SDS011;3456;42.136;24.736;2023-05-07T12:31:20;4.20;;;3.13;;
6836;SDS011;3456;42.136;24.736;2023-05-07T12:33:49;6.53;;;3.20;;
6836;SDS011;3456;42.136;24.736;2023-05-07T12:36:20;3.00;;;2.70;;
6836;SDS011;3456;42.136;24.736;2023-05-07T12:38:49;4.77;;;2.87;;
6836;SDS011;3456;42.136;24.736;2023-05-07T12:41:18;8.10;;;3.73;;
6836;SDS011;3456;42.136;24.736;2023-05-07T12:43:51;6.07;;;3.27;;
6836;SDS011;3456;42.136;24.736;2023-05-07T12:46:24;6.23;;;2.80;;
6836;SDS011;3456;42.136;24.736;2023-05-07T12:48:53;3.93;;;2.83;;
6836;SDS011;3456;42.136;24.736;2023-05-07T12:51:25;3.17;;;2.80;;
6836;SDS011;3456;42.136;24.736;2023-05-07T12:53:55;3.93;;;3.20;;
6836;SDS011;3456;42.136;24.736;2023-05-07T12:56:25;5.97;;;3.27;;
6836;SDS011;3456;42.136;24.736;2023-05-07T12:58:56;4.63;;;2.73;;
6836;SDS011;3456;42.136;24.736;2023-05-07T13:01:28;6.47;;;2.80;;
6836;SDS011;3456;42.136;24.736;2023-05-07T13:04:00;5.10;;;2.57;;
6836;SDS011;3456;42.136;24.736;2023-05-07T13:06:33;4.60;;;3.30;;
6836;SDS011;3456;42.136;24.736;2023-05-07T13:09:02;4.13;;;3.20;;
6836;SDS011;3456;42.136;24.736;2023-05-07T13:11:34;3.57;;;2.70;;
6836;SDS011;3456;42.136;24.736;2023-05-07T13:14:03;5.80;;;3.20;;
6836;SDS011;3456;42.136;24.736;2023-05-07T13:16:32;6.87;;;3.20;;
6836;SDS011;3456;42.136;24.736;2023-05-07T13:19:00;3.93;;;2.83;;
6836;SDS011;3456;42.136;24.736;2023-05-07T13:21:29;5.30;;;2.80;;
6836;SDS011;3456;42.136;24.736;2023-05-07T13:24:01;5.07;;;2.70;;
6836;SDS011;3456;42.136;24.736;2023-05-07T13:26:30;9.70;;;2.80;;
6836;SDS011;3456;42.136;24.736;2023-05-07T13:28:59;5.23;;;2.60;;
6836;SDS011;3456;42.136;24.736;2023-05-07T13:31:28;3.73;;;2.93;;
6836;SDS011;3456;42.136;24.736;2023-05-07T13:33:57;4.33;;;2.73;;
6836;SDS011;3456;42.136;24.736;2023-05-07T13:36:25;3.80;;;2.90;;
6836;SDS011;3456;42.136;24.736;2023-05-07T13:39:00;3.57;;;2.80;;
6836;SDS011;3456;42.136;24.736;2023-05-07T13:41:29;4.30;;;2.40;;
6836;SDS011;3456;42.136;24.736;2023-05-07T13:43:58;5.20;;;2.70;;
6836;SDS011;3456;42.136;24.736;2023-05-07T13:46:26;3.10;;;2.27;;
6836;SDS011;3456;42.136;24.736;2023-05-07T13:48:55;3.20;;;2.60;;
6836;SDS011;3456;42.136;24.736;2023-05-07T13:51:24;4.50;;;2.90;;
6836;SDS011;3456;42.136;24.736;2023-05-07T13:53:54;7.67;;;2.77;;
6836;SDS011;3456;42.136;24.736;2023-05-07T13:56:26;5.60;;;3.17;;
6836;SDS011;3456;42.136;24.736;2023-05-07T13:58:56;4.30;;;2.67;;
6836;SDS011;3456;42.136;24.736;2023-05-07T14:01:25;3.10;;;2.47;;
6836;SDS011;3456;42.136;24.736;2023-05-07T14:03:55;3.60;;;2.60;;
6836;SDS011;3456;42.136;24.736;2023-05-07T14:06:24;5.77;;;2.50;;
6836;SDS011;3456;42.136;24.736;2023-05-07T14:08:53;4.23;;;2.93;;
6836;SDS011;3456;42.136;24.736;2023-05-07T14:11:25;4.47;;;2.50;;
6836;SDS011;3456;42.136;24.736;2023-05-07T14:13:54;3.97;;;2.20;;
6836;SDS011;3456;42.136;24.736;2023-05-07T14:16:24;2.50;;;2.30;;
6836;SDS011;3456;42.136;24.736;2023-05-07T14:18:52;3.20;;;2.50;;
6836;SDS011;3456;42.136;24.736;2023-05-07T14:21:21;3.97;;;2.27;;
6836;SDS011;3456;42.136;24.736;2023-05-07T14:23:50;6.57;;;2.17;;
6836;SDS011;3456;42.136;24.736;2023-05-07T14:26:20;6.10;;;2.43;;
6836;SDS011;3456;42.136;24.736;2023-05-07T14:28:52;4.00;;;2.37;;
6836;SDS011;3456;42.136;24.736;2023-05-07T14:31:22;4.33;;;2.63;;
6836;SDS011;3456;42.136;24.736;2023-05-07T14:33:51;8.83;;;5.10;;
6836;SDS011;3456;42.136;24.736;2023-05-07T14:36:20;2.60;;;2.20;;
6836;SDS011;3456;42.136;24.736;2023-05-07T14:38:51;3.10;;;2.50;;
6836;SDS011;3456;42.136;24.736;2023-05-07T14:41:21;3.63;;;2.20;;
6836;SDS011;3456;42.136;24.736;2023-05-07T14:43:53;4.90;;;2.33;;
6836;SDS011;3456;42.136;24.736;2023-05-07T14:46:21;4.10;;;2.30;;
6836;SDS011;3456;42.136;24.736;2023-05-07T14:48:51;2.60;;;2.40;;
6836;SDS011;3456;42.136;24.736;2023-05-07T14:51:22;2.80;;;2.50;;
6836;SDS011;3456;42.136;24.736;2023-05-07T14:53:51;7.00;;;4.00;;
6836;SDS011;3456;42.136;24.736;2023-05-07T14:56:19;3.97;;;2.23;;
6836;SDS011;3456;42.136;24.736;2023-05-07T14:58:48;3.30;;;2.40;;
6836;SDS011;3456;42.136;24.736;2023-05-07T15:01:20;5.00;;;2.73;;
6836;SDS011;3456;42.136;24.736;2023-05-07T15:03:49;4.60;;;2.63;;
6836;SDS011;3456;42.136;24.736;2023-05-07T15:06:18;5.63;;;3.73;;
6836;SDS011;3456;42.136;24.736;2023-05-07T15:08:47;4.33;;;2.33;;
6836;SDS011;3456;42.136;24.736;2023-05-07T15:11:18;7.67;;;2.67;;
6836;SDS011;3456;42.136;24.736;2023-05-07T15:13:47;4.23;;;2.60;;
6836;SDS011;3456;42.136;24.736;2023-05-07T15:16:16;6.23;;;2.80;;
6836;SDS011;3456;42.136;24.736;2023-05-07T15:18:48;4.80;;;3.30;;
6836;SDS011;3456;42.136;24.736;2023-05-07T15:21:16;6.27;;;2.83;;
6836;SDS011;3456;42.136;24.736;2023-05-07T15:23:45;5.33;;;2.40;;